createdAt,value
2019-04-20T00:00:09.431Z,0.0000
2019-04-20T00:02:18.876Z,0.0000
2019-04-20T00:04:29.039Z,0.0000
2019-04-20T00:06:41.263Z,0.0000
2019-04-20T00:08:43.128Z,0.0000
2019-04-20T00:10:56.935Z,0.0000
2019-04-20T00:13:09.163Z,0.0000
2019-04-20T00:15:05.264Z,0.0000
2019-04-20T00:17:09.517Z,0.0000
2019-04-20T00:19:15.346Z,0.0000
2019-04-20T00:21:22.545Z,0.0000
2019-04-20T00:23:33.772Z,0.0000
2019-04-20T00:25:49.994Z,0.0000
2019-04-20T00:28:04.674Z,0.0000
2019-04-20T00:30:06.746Z,0.0000
2019-04-20T00:32:13.420Z,0.0000
2019-04-20T00:34:18.318Z,0.0000
2019-04-20T00:36:20.168Z,0.0000
2019-04-20T00:38:28.005Z,0.0000
2019-04-20T00:40:32.670Z,0.0000
2019-04-20T00:42:43.332Z,0.0000
2019-04-20T00:44:49.626Z,0.0000
2019-04-20T00:47:06.878Z,0.0000
2019-04-20T00:49:19.145Z,0.0000
2019-04-20T00:53:30.295Z,0.0000
2019-04-20T00:55:29.584Z,0.0000
2019-04-20T00:57:41.875Z,0.0000
2019-04-20T01:00:09.295Z,0.0000
2019-04-20T01:02:14.231Z,0.0000
2019-04-20T01:04:20.144Z,0.0000
2019-04-20T01:06:28.494Z,0.0000
2019-04-20T01:08:21.234Z,0.0000
2019-04-20T01:10:28.307Z,0.0000
2019-04-20T01:12:35.609Z,0.0000
2019-04-20T01:14:52.090Z,0.0000
2019-04-20T01:16:59.733Z,0.0000
2019-04-20T01:19:01.924Z,0.0000
2019-04-20T01:21:13.139Z,0.0000
2019-04-20T01:23:19.078Z,0.0000
2019-04-20T01:25:29.976Z,0.0000
2019-04-20T01:27:42.435Z,0.0000
2019-04-20T01:29:46.122Z,0.0000
2019-04-20T01:32:02.295Z,0.0000
2019-04-20T01:34:03.168Z,0.0000
2019-04-20T01:36:25.432Z,0.0000
2019-04-20T01:38:30.509Z,0.0000
2019-04-20T01:40:27.378Z,0.0000
2019-04-20T01:42:32.094Z,0.0000
2019-04-20T01:44:41.220Z,0.1743
2019-04-20T01:46:49.852Z,0.0000
2019-04-20T01:48:54.857Z,0.0000
2019-04-20T01:51:08.307Z,0.0000
2019-04-20T01:53:16.440Z,0.0000
2019-04-20T01:55:33.628Z,0.0000
2019-04-20T01:57:32.794Z,0.0000
2019-04-20T01:59:46.075Z,0.0000
2019-04-20T02:01:43.896Z,0.0000
2019-04-20T02:03:53.456Z,0.0000
2019-04-20T02:06:04.478Z,0.0000
2019-04-20T02:08:12.841Z,0.0000
2019-04-20T02:10:16.601Z,0.0000
2019-04-20T02:12:26.091Z,0.0000
2019-04-20T02:14:37.704Z,0.5077
2019-04-20T02:16:45.233Z,0.3385
2019-04-20T02:19:06.524Z,0.0000
2019-04-20T02:21:18.360Z,0.0000
2019-04-20T02:23:20.042Z,0.0000
2019-04-20T02:25:12.510Z,0.0000
2019-04-20T02:27:19.707Z,0.4107
2019-04-20T02:29:46.009Z,0.0000
2019-04-20T02:32:11.777Z,0.0563
2019-04-20T02:34:19.883Z,0.0000
2019-04-20T02:36:38.175Z,0.0000
2019-04-20T02:38:54.236Z,0.0000
2019-04-20T02:40:47.372Z,0.0000
2019-04-20T02:43:08.081Z,0.0000
2019-04-20T02:45:13.111Z,0.0000
2019-04-20T02:49:37.657Z,0.0000
2019-04-20T02:51:33.089Z,0.0000
2019-04-20T02:53:41.580Z,0.6721
2019-04-20T02:55:51.787Z,0.4511
2019-04-20T03:01:57.331Z,0.0000
2019-04-20T03:03:51.089Z,0.0000
2019-04-20T03:06:08.659Z,0.0000
2019-04-20T03:08:22.395Z,0.0000
2019-04-20T03:10:44.543Z,0.0000
2019-04-20T03:12:44.868Z,0.0000
2019-04-20T03:14:47.768Z,0.0000
2019-04-20T03:17:03.288Z,0.0000
2019-04-20T03:19:03.112Z,0.6770
2019-04-20T03:21:27.284Z,0.1692
2019-04-20T03:23:52.654Z,0.6770
2019-04-20T03:25:39.709Z,0.0000
2019-04-20T03:27:41.426Z,0.1965
2019-04-20T03:29:54.923Z,0.3367
2019-04-20T03:32:27.898Z,0.0281
2019-04-20T03:34:44.790Z,0.4794
2019-04-20T03:36:25.513Z,0.3103
2019-04-20T03:38:27.243Z,0.0000
2019-04-20T03:40:29.386Z,0.0000
2019-04-20T03:42:24.805Z,0.0000
2019-04-20T03:44:32.127Z,0.3220
2019-04-20T03:46:44.841Z,0.0000
2019-04-20T03:49:01.351Z,0.1128
2019-04-20T03:51:14.902Z,0.1404
2019-04-20T03:53:22.930Z,0.0000
2019-04-20T03:55:26.387Z,0.2238
2019-04-20T03:57:41.237Z,0.1974
2019-04-20T03:59:51.002Z,0.0000
2019-04-20T04:02:14.788Z,0.0281
2019-04-20T04:04:09.474Z,0.1123
2019-04-20T04:06:08.346Z,0.5330
2019-04-20T04:08:14.947Z,0.5077
2019-04-20T04:10:25.908Z,0.8448
2019-04-20T04:12:29.731Z,0.4231
2019-04-20T04:14:30.391Z,0.3948
2019-04-20T04:16:41.903Z,0.0870
2019-04-20T04:18:46.066Z,0.8177
2019-04-20T04:20:57.398Z,0.1128
2019-04-20T04:23:19.092Z,0.0282
2019-04-20T04:25:20.973Z,0.1117
2019-04-20T04:27:40.413Z,0.2236
2019-04-20T04:29:47.119Z,0.8416
2019-04-20T04:32:05.488Z,0.0280
2019-04-20T04:34:05.843Z,0.0000
2019-04-20T04:36:10.016Z,0.0564
2019-04-20T04:38:28.876Z,0.0281
2019-04-20T04:40:42.779Z,0.0000
2019-04-20T04:42:48.270Z,0.0000
2019-04-20T04:44:43.265Z,0.0000
2019-04-20T04:46:53.425Z,0.0000
2019-04-20T04:48:53.294Z,0.0280
2019-04-20T04:51:05.290Z,0.0000
2019-04-20T04:53:17.180Z,0.0564
2019-04-20T04:55:28.627Z,0.0564
2019-04-20T04:57:26.362Z,0.0280
2019-04-20T04:59:29.851Z,0.0000
2019-04-20T05:01:35.312Z,0.0000
2019-04-20T05:04:02.892Z,0.0000
2019-04-20T05:06:06.631Z,0.2539
2019-04-20T05:08:08.881Z,0.0000
2019-04-20T05:10:06.055Z,0.0000
2019-04-20T05:12:15.228Z,0.0000
2019-04-20T05:14:24.429Z,0.0282
2019-04-20T05:16:46.056Z,0.0000
2019-04-20T05:19:11.552Z,0.0000
2019-04-20T05:21:06.295Z,0.0000
2019-04-20T05:23:11.543Z,0.0000
2019-04-20T05:25:22.331Z,0.0000
2019-04-20T05:27:33.600Z,0.0000
2019-04-20T05:29:25.475Z,0.0000
2019-04-20T05:31:39.695Z,0.0000
2019-04-20T05:34:06.796Z,0.0277
2019-04-20T05:36:05.658Z,0.9820
2019-04-20T05:38:22.969Z,0.1964
2019-04-20T05:40:29.213Z,0.1403
2019-04-20T05:42:35.649Z,0.0000
2019-04-20T05:44:48.544Z,0.0000
2019-04-20T05:46:59.734Z,0.0000
2019-04-20T05:49:03.168Z,0.1691
2019-04-20T05:51:10.548Z,0.2196
2019-04-20T05:53:19.349Z,0.0000
2019-04-20T05:55:33.109Z,0.0000
2019-04-20T05:57:50.759Z,0.0000
2019-04-20T05:59:59.424Z,0.0000
2019-04-20T06:02:03.695Z,0.0000
2019-04-20T06:04:01.635Z,0.0000
2019-04-20T06:06:15.161Z,0.0000
2019-04-20T06:08:32.090Z,0.0000
2019-04-20T06:10:31.883Z,0.0000
2019-04-20T06:12:40.268Z,0.0000
2019-04-20T06:14:46.786Z,0.0275
2019-04-20T06:17:02.818Z,0.0000
2019-04-20T06:19:24.220Z,0.0000
2019-04-20T06:21:29.099Z,0.0000
2019-04-20T06:23:33.762Z,0.0564
2019-04-20T06:25:44.339Z,0.0282
2019-04-20T06:27:48.938Z,0.5076
2019-04-20T06:29:51.357Z,0.1966
2019-04-20T06:32:05.203Z,0.0000
2019-04-20T06:36:27.567Z,0.0000
2019-04-20T06:38:44.357Z,0.1403
2019-04-20T06:41:09.050Z,0.5640
2019-04-20T06:42:50.348Z,0.0841
2019-04-20T06:44:52.390Z,0.6767
2019-04-20T06:49:16.964Z,0.0842
2019-04-20T06:51:22.306Z,0.2256
2019-04-20T06:53:42.519Z,0.1691
2019-04-20T06:55:42.997Z,0.1122
2019-04-20T06:57:45.299Z,0.5642
2019-04-20T06:59:56.129Z,1.7684
2019-04-20T07:02:15.289Z,1.0982
2019-04-20T07:04:33.498Z,1.3372
2019-04-20T07:06:35.352Z,0.5586
2019-04-20T07:08:58.749Z,0.9226
2019-04-20T07:10:43.918Z,2.2738
2019-04-20T07:12:45.048Z,0.1692
2019-04-20T07:14:47.447Z,0.3385
2019-04-20T07:17:24.434Z,1.4096
2019-04-20T07:19:16.888Z,2.2849
2019-04-20T07:21:37.549Z,0.0562
2019-04-20T07:23:33.946Z,0.7616
2019-04-20T07:25:42.330Z,0.5615
2019-04-20T07:27:49.068Z,1.0999
2019-04-20T07:29:57.938Z,1.9083
2019-04-20T07:32:05.104Z,2.7082
2019-04-20T07:34:15.608Z,0.1965
2019-04-20T07:36:30.576Z,2.3977
2019-04-20T07:38:40.181Z,0.7898
2019-04-20T07:40:39.478Z,1.2070
2019-04-20T07:42:51.881Z,1.4012
2019-04-20T07:45:01.413Z,2.5322
2019-04-20T07:47:13.989Z,1.6286
2019-04-20T07:49:22.472Z,3.2993
2019-04-20T07:51:12.471Z,0.9024
2019-04-20T07:53:32.145Z,1.1837
2019-04-20T07:57:45.959Z,1.5513
2019-04-20T08:00:01.720Z,2.4823
2019-04-20T08:02:15.992Z,2.5276
2019-04-20T08:06:11.599Z,1.6077
2019-04-20T08:08:30.814Z,0.9871
2019-04-20T08:10:47.006Z,0.3362
2019-04-20T08:12:58.384Z,1.8763
2019-04-20T08:15:03.739Z,0.3103
2019-04-20T08:17:22.940Z,1.3822
2019-04-20T08:19:17.369Z,1.9655
2019-04-20T08:21:32.853Z,0.3931
2019-04-20T08:23:33.473Z,0.8968
2019-04-20T08:25:37.318Z,2.7800
2019-04-20T08:27:33.804Z,0.7301
2019-04-20T08:29:51.469Z,1.1357
2019-04-20T08:32:10.388Z,2.5529
2019-04-20T08:34:18.617Z,0.9829
2019-04-20T08:36:29.970Z,0.9009
2019-04-20T08:38:58.343Z,2.7235
2019-04-20T08:40:43.628Z,2.4253
2019-04-20T08:43:02.348Z,0.8460
2019-04-20T08:47:20.579Z,0.5642
2019-04-20T08:49:22.096Z,0.6770
2019-04-20T08:51:22.691Z,4.1452
2019-04-20T08:53:47.079Z,0.8181
2019-04-20T08:55:40.247Z,0.3929
2019-04-20T08:57:29.307Z,1.8608
2019-04-20T08:59:35.019Z,0.2917
2019-04-20T09:01:40.757Z,1.7858
2019-04-20T09:03:56.486Z,3.5400
2019-04-20T09:06:03.433Z,2.4989
2019-04-20T09:08:11.310Z,2.4759
2019-04-20T09:10:34.731Z,2.7927
2019-04-20T09:12:36.821Z,2.6235
2019-04-20T09:14:28.707Z,2.6674
2019-04-20T09:16:42.414Z,2.4186
2019-04-20T09:18:50.264Z,2.5658
2019-04-20T09:20:59.287Z,0.0564
2019-04-20T09:23:16.645Z,0.8180
2019-04-20T09:25:43.818Z,4.4440
2019-04-20T09:27:25.329Z,2.0588
2019-04-20T09:29:34.585Z,2.6952
2019-04-20T09:31:43.636Z,0.8181
2019-04-20T09:33:57.084Z,1.7751
2019-04-20T09:36:03.317Z,1.9373
2019-04-20T09:38:14.448Z,2.0588
2019-04-20T09:40:29.227Z,0.8179
2019-04-20T09:42:17.138Z,2.6435
2019-04-20T09:44:24.581Z,3.2256
2019-04-20T09:46:30.929Z,1.1560
2019-04-20T09:48:44.048Z,0.9588
2019-04-20T09:51:05.119Z,2.5818
2019-04-20T09:53:10.185Z,3.2292
2019-04-20T09:55:18.552Z,3.7231
2019-04-20T09:57:30.970Z,1.8897
2019-04-20T09:59:40.072Z,2.2735
2019-04-20T10:01:39.345Z,3.5821
2019-04-20T10:03:38.833Z,1.2635
2019-04-20T10:05:47.471Z,1.2262
2019-04-20T10:07:55.901Z,0.6469
2019-04-20T10:10:00.815Z,2.1011
2019-04-20T10:12:05.579Z,4.0292
2019-04-20T10:14:10.306Z,2.7835
2019-04-20T10:16:13.820Z,1.0159
2019-04-20T10:18:17.515Z,2.2883
2019-04-20T10:20:28.340Z,0.6437
2019-04-20T10:22:30.884Z,1.4864
2019-04-20T10:24:34.736Z,3.6694
2019-04-20T10:26:38.686Z,1.4317
2019-04-20T10:28:43.523Z,0.9059
2019-04-20T10:30:48.364Z,4.4935
2019-04-20T10:32:54.069Z,3.8306
2019-04-20T10:34:59.041Z,0.6259
2019-04-20T10:37:03.804Z,3.1096
2019-04-20T10:39:08.704Z,3.5952
2019-04-20T10:41:20.442Z,1.7968
2019-04-20T10:43:21.895Z,2.6955
2019-04-20T10:45:26.693Z,1.2824
2019-04-20T10:47:30.263Z,2.9580
2019-04-20T10:49:33.675Z,2.2877
2019-04-20T10:51:37.820Z,3.2856
2019-04-20T10:53:42.378Z,2.4475
2019-04-20T10:55:47.315Z,1.2501
2019-04-20T10:57:51.409Z,5.8239
2019-04-20T10:59:55.426Z,3.9101
2019-04-20T11:01:59.729Z,2.3062
2019-04-20T11:04:03.132Z,1.2531
2019-04-20T11:06:06.796Z,2.4643
2019-04-20T11:08:10.676Z,1.9886
2019-04-20T11:10:21.972Z,1.2868
2019-04-20T11:12:30.510Z,1.2072
2019-04-20T11:14:40.410Z,1.1345
2019-04-20T11:16:46.704Z,1.4366
2019-04-20T11:18:51.323Z,3.8753
2019-04-20T11:20:55.652Z,0.7550
2019-04-20T11:22:58.197Z,2.7687
2019-04-20T11:25:04.163Z,1.9789
2019-04-20T11:27:07.982Z,2.1822
2019-04-20T11:29:11.473Z,2.6043
2019-04-20T11:31:16.467Z,1.7304
2019-04-20T11:33:20.389Z,1.0704
2019-04-20T11:35:27.792Z,0.2047
2019-04-20T11:37:33.158Z,1.4103
2019-04-20T11:39:37.028Z,3.5499
2019-04-20T11:41:41.503Z,5.4919
2019-04-20T11:43:44.979Z,0.5529
2019-04-20T11:45:48.895Z,3.4326
2019-04-20T11:47:53.489Z,2.0434
2019-04-20T11:49:57.624Z,2.8154
2019-04-20T11:52:01.719Z,2.4827
2019-04-20T11:54:06.185Z,0.3503
2019-04-20T11:56:14.484Z,0.5811
2019-04-20T11:58:19.618Z,1.8334
2019-04-20T12:00:25.199Z,2.4896
2019-04-20T12:02:34.890Z,1.0090
2019-04-20T12:04:45.668Z,1.8532
2019-04-20T12:06:46.699Z,1.7125
2019-04-20T12:08:50.153Z,0.6448
2019-04-20T12:10:59.546Z,2.9337
2019-04-20T12:13:04.182Z,2.4670
2019-04-20T12:15:08.618Z,3.1968
2019-04-20T12:17:13.242Z,2.6748
2019-04-20T12:19:17.029Z,3.1884
2019-04-20T12:21:21.067Z,3.7260
2019-04-20T12:23:24.610Z,3.3841
2019-04-20T12:25:29.063Z,0.8795
2019-04-20T12:27:34.915Z,1.9402
2019-04-20T12:29:38.647Z,2.9045
2019-04-20T12:31:44.405Z,0.3801
2019-04-20T12:33:52.507Z,0.1410
2019-04-20T12:35:58.263Z,2.8552
2019-04-20T12:38:03.015Z,2.1013
2019-04-20T12:40:07.165Z,1.4221
2019-04-20T12:42:11.217Z,4.5501
2019-04-20T12:44:15.406Z,4.2312
2019-04-20T12:46:21.509Z,2.4798
2019-04-20T12:48:26.448Z,1.3897
2019-04-20T12:50:30.077Z,0.8802
2019-04-20T12:52:34.676Z,2.7527
2019-04-20T12:54:41.171Z,2.3233
2019-04-20T12:56:46.687Z,0.5915
2019-04-20T12:58:51.534Z,4.8390
2019-04-20T13:00:56.258Z,2.3177
2019-04-20T13:03:01.114Z,2.2068
2019-04-20T13:05:04.600Z,3.1607
2019-04-20T13:07:08.021Z,1.6136
2019-04-20T13:09:12.557Z,3.2259
2019-04-20T13:11:18.331Z,2.8730
2019-04-20T13:13:22.739Z,1.2103
2019-04-20T13:15:26.594Z,2.3578
2019-04-20T13:17:30.763Z,2.1339
2019-04-20T13:19:35.406Z,2.1296
2019-04-20T13:21:39.142Z,3.0189
2019-04-20T13:23:43.199Z,2.1075
2019-04-20T13:25:46.688Z,2.5979
2019-04-20T13:27:50.986Z,4.7174
2019-04-20T13:29:55.963Z,2.0107
2019-04-20T13:32:00.181Z,2.8655
2019-04-20T13:34:05.407Z,0.2916
2019-04-20T13:36:10.198Z,1.0403
2019-04-20T13:38:14.139Z,4.1199
2019-04-20T13:40:17.745Z,1.2562
2019-04-20T13:42:25.150Z,4.8035
2019-04-20T13:44:33.069Z,1.5399
2019-04-20T13:46:36.798Z,1.4368
2019-04-20T13:48:40.393Z,0.9650
2019-04-20T13:50:44.266Z,1.4363
2019-04-20T13:52:48.938Z,0.1461
2019-04-20T13:54:53.589Z,1.8291
2019-04-20T13:56:59.653Z,0.6669
2019-04-20T13:59:03.763Z,2.9921
2019-04-20T14:01:08.217Z,3.4121
2019-04-20T14:03:12.111Z,1.8279
2019-04-20T14:05:16.856Z,2.8444
2019-04-20T14:07:22.016Z,2.4652
2019-04-20T14:09:25.640Z,2.6898
2019-04-20T14:11:29.725Z,4.4828
2019-04-20T14:13:40.360Z,2.7433
2019-04-20T14:15:42.896Z,3.3142
2019-04-20T14:17:47.146Z,2.7954
2019-04-20T14:19:50.835Z,3.6152
2019-04-20T14:21:54.229Z,3.0148
2019-04-20T14:23:59.062Z,1.5538
2019-04-20T14:26:03.060Z,2.9866
2019-04-20T14:28:07.209Z,0.8174
2019-04-20T14:30:11.082Z,1.6930
2019-04-20T14:32:14.788Z,2.2499
2019-04-20T14:34:18.257Z,0.9656
2019-04-20T14:36:24.096Z,5.0161
2019-04-20T14:38:28.533Z,1.5511
2019-04-20T14:40:32.457Z,1.6896
2019-04-20T14:42:42.782Z,1.2563
2019-04-20T14:44:45.864Z,3.7499
2019-04-20T14:46:50.000Z,2.8942
2019-04-20T14:48:54.515Z,0.7883
2019-04-20T14:50:59.285Z,2.2071
2019-04-20T14:53:02.780Z,0.6387
2019-04-20T14:55:06.194Z,3.2271
2019-04-20T14:57:11.600Z,2.6990
2019-04-20T14:59:15.681Z,2.2219
2019-04-20T15:01:20.523Z,2.3044
2019-04-20T15:03:24.263Z,1.1313
2019-04-20T15:05:28.869Z,1.9318
2019-04-20T15:07:33.015Z,2.9314
2019-04-20T15:09:38.741Z,3.7937
2019-04-20T15:11:44.664Z,1.5769
2019-04-20T15:13:48.969Z,2.5366
2019-04-20T15:15:54.863Z,2.5383
2019-04-20T15:17:59.611Z,1.2654
2019-04-20T15:20:03.536Z,0.0580
2019-04-20T15:22:07.528Z,3.1259
2019-04-20T15:24:11.561Z,3.0081
2019-04-20T15:26:16.103Z,0.7885
2019-04-20T15:28:20.668Z,2.6439
2019-04-20T15:30:24.873Z,0.2035
2019-04-20T15:32:29.188Z,2.0410
2019-04-20T15:34:32.996Z,3.1152
2019-04-20T15:36:38.107Z,0.1170
2019-04-20T15:38:42.942Z,0.6361
2019-04-20T15:40:46.955Z,0.0000
2019-04-20T15:42:59.020Z,0.3212
2019-04-20T15:44:58.752Z,2.3131
2019-04-20T15:47:03.511Z,1.1149
2019-04-20T15:49:08.243Z,2.4920
2019-04-20T15:51:14.008Z,2.6429
2019-04-20T15:53:19.629Z,1.4100
2019-04-20T15:55:27.407Z,2.9979
2019-04-20T15:57:34.470Z,1.9928
2019-04-20T15:59:38.330Z,2.8712
2019-04-20T16:01:41.781Z,1.8464
2019-04-20T16:03:45.735Z,2.8157
2019-04-20T16:05:49.388Z,4.7876
2019-04-20T16:07:56.934Z,2.9282
2019-04-20T16:10:01.309Z,1.6077
2019-04-20T16:12:04.777Z,2.5498
2019-04-20T16:14:09.067Z,1.9354
2019-04-20T16:16:14.013Z,0.1164
2019-04-20T16:18:18.789Z,1.3898
2019-04-20T16:20:23.975Z,1.2195
2019-04-20T16:22:28.983Z,1.2876
2019-04-20T16:24:33.881Z,2.5785
2019-04-20T16:26:38.061Z,0.0000
2019-04-20T16:28:41.683Z,0.9971
2019-04-20T16:30:45.522Z,2.7514
2019-04-20T16:32:48.243Z,1.4622
2019-04-20T16:34:52.765Z,2.0649
2019-04-20T16:36:58.070Z,0.2036
2019-04-20T16:39:02.122Z,3.4789
2019-04-20T16:41:06.583Z,2.3117
2019-04-20T16:43:21.124Z,3.0884
2019-04-20T16:45:19.292Z,1.0672
2019-04-20T16:47:23.973Z,1.7854
2019-04-20T16:49:30.652Z,0.1161
2019-04-20T16:51:34.743Z,0.0572
2019-04-20T16:53:39.456Z,0.8159
2019-04-20T16:55:43.083Z,1.1904
2019-04-20T16:57:49.236Z,2.2578
2019-04-20T16:59:56.109Z,2.3182
2019-04-20T17:02:02.340Z,1.4128
2019-04-20T17:04:09.796Z,0.1740
2019-04-20T17:06:14.312Z,0.0282
2019-04-20T17:08:18.753Z,1.4670
2019-04-20T17:10:23.715Z,1.1343
2019-04-20T17:12:28.278Z,0.6367
2019-04-20T17:14:31.875Z,1.1352
2019-04-20T17:16:35.539Z,1.4645
2019-04-20T17:18:39.329Z,0.7607
2019-04-20T17:20:44.336Z,2.1644
2019-04-20T17:22:48.603Z,0.1738
2019-04-20T17:24:53.618Z,0.3783
2019-04-20T17:26:57.209Z,2.6070
2019-04-20T17:29:01.878Z,1.9064
2019-04-20T17:31:05.382Z,2.3220
2019-04-20T17:33:10.229Z,1.4665
2019-04-20T17:35:27.684Z,1.1875
2019-04-20T17:37:22.644Z,1.5515
2019-04-20T17:39:37.025Z,1.7810
2019-04-20T17:41:59.429Z,1.0946
2019-04-20T17:44:00.256Z,1.0718
2019-04-20T17:46:02.896Z,2.5262
2019-04-20T17:48:14.444Z,2.3694
2019-04-20T17:50:20.156Z,0.0282
2019-04-20T17:52:42.957Z,0.4493
2019-04-20T17:54:27.288Z,0.1693
2019-04-20T17:56:30.744Z,0.0874
2019-04-20T17:58:36.774Z,0.0000
2019-04-20T18:00:47.043Z,0.0000
2019-04-20T18:03:13.256Z,0.1410
2019-04-20T18:05:37.269Z,1.2900
2019-04-20T18:07:35.449Z,0.0000
2019-04-20T18:09:45.470Z,0.3385
2019-04-20T18:11:37.321Z,0.0000
2019-04-20T18:13:37.826Z,0.0000
2019-04-20T18:15:57.493Z,0.0000
2019-04-20T18:18:09.400Z,0.1128
2019-04-20T18:19:58.743Z,0.0000
2019-04-20T18:22:03.565Z,0.0000
2019-04-20T18:24:14.368Z,0.0000
2019-04-20T18:26:38.212Z,0.0282
2019-04-20T18:28:46.492Z,0.0564
2019-04-20T18:30:41.697Z,0.3948
2019-04-20T18:32:41.156Z,0.0000
2019-04-20T18:34:52.365Z,0.0876
2019-04-20T18:36:54.505Z,0.1692
2019-04-20T18:39:04.286Z,0.0000
2019-04-20T18:41:14.488Z,0.0000
2019-04-20T18:43:20.499Z,0.0000
2019-04-20T18:45:40.818Z,0.0000
2019-04-20T18:49:51.813Z,0.3385
2019-04-20T18:51:49.826Z,1.0436
2019-04-20T18:53:53.917Z,0.7333
2019-04-20T18:56:00.603Z,0.0000
2019-04-20T18:58:07.030Z,0.0000
2019-04-20T19:00:18.075Z,0.0000
2019-04-20T19:02:26.927Z,0.9026
2019-04-20T19:04:28.086Z,0.0000
2019-04-20T19:06:31.854Z,0.0586
2019-04-20T19:08:40.429Z,1.7844
2019-04-20T19:10:54.168Z,0.4211
2019-04-20T19:13:00.952Z,0.0000
2019-04-20T19:15:20.379Z,0.0000
2019-04-20T19:17:18.862Z,0.4231
2019-04-20T19:19:28.642Z,0.0000
2019-04-20T19:21:27.139Z,0.0000
2019-04-20T19:23:30.536Z,0.0000
2019-04-20T19:25:37.464Z,0.0000
2019-04-20T19:27:48.883Z,0.0000
2019-04-20T19:29:59.858Z,0.0000
2019-04-20T19:32:19.433Z,1.6283
2019-04-20T19:34:26.412Z,0.0000
2019-04-20T19:36:33.389Z,0.0846
2019-04-20T19:38:41.789Z,0.1122
2019-04-20T19:40:47.980Z,0.1128
2019-04-20T19:42:59.942Z,0.1684
2019-04-20T19:45:25.074Z,0.7332
2019-04-20T19:47:21.072Z,0.6207
2019-04-20T19:49:23.004Z,0.3100
2019-04-20T19:51:40.866Z,0.0282
2019-04-20T19:53:48.797Z,0.0000
2019-04-20T19:55:52.955Z,0.0000
2019-04-20T19:58:02.479Z,0.0563
2019-04-20T19:59:56.724Z,0.1966
2019-04-20T20:02:01.393Z,2.3736
2019-04-20T20:04:09.239Z,0.4401
2019-04-20T20:06:23.848Z,0.0846
2019-04-20T20:08:27.233Z,0.0000
2019-04-20T20:10:35.548Z,0.7617
2019-04-20T20:12:41.206Z,0.3385
2019-04-20T20:14:50.021Z,0.1974
2019-04-20T20:17:08.660Z,0.0847
2019-04-20T20:19:12.176Z,0.3361
2019-04-20T20:21:23.628Z,0.0282
2019-04-20T20:23:21.757Z,0.2245
2019-04-20T20:25:30.744Z,0.0880
2019-04-20T20:27:46.937Z,0.4833
2019-04-20T20:29:47.297Z,0.0564
2019-04-20T20:32:01.811Z,1.2693
2019-04-20T20:34:12.094Z,2.4259
2019-04-20T20:36:13.957Z,0.0282
2019-04-20T20:38:22.405Z,0.1685
2019-04-20T20:40:29.977Z,0.3385
2019-04-20T20:42:51.112Z,0.0000
2019-04-20T20:44:51.713Z,0.3642
2019-04-20T20:46:55.090Z,0.0842
2019-04-20T20:49:16.179Z,0.8180
2019-04-20T20:51:28.465Z,0.5642
2019-04-20T20:53:22.961Z,1.5797
2019-04-20T20:55:33.529Z,1.3733
2019-04-20T20:57:44.841Z,0.0000
2019-04-20T20:59:54.789Z,0.1680
2019-04-20T21:02:03.664Z,1.3536
2019-04-20T21:04:00.496Z,0.1689
2019-04-20T21:06:05.514Z,0.6668
2019-04-20T21:08:08.999Z,0.7241
2019-04-20T21:10:15.320Z,0.0880
2019-04-20T21:12:22.327Z,0.0564
2019-04-20T21:14:29.915Z,0.0000
2019-04-20T21:16:42.527Z,0.0845
2019-04-20T21:19:01.048Z,0.0842
2019-04-20T21:21:07.627Z,0.0000
2019-04-20T21:23:15.365Z,0.0842
2019-04-20T21:25:10.807Z,0.4511
2019-04-20T21:27:18.023Z,0.2333
2019-04-20T21:29:29.923Z,0.0000
2019-04-20T21:31:32.771Z,0.0000
2019-04-20T21:33:38.300Z,0.0000
2019-04-20T21:35:48.584Z,0.0284
2019-04-20T21:37:58.875Z,0.0564
2019-04-20T21:40:11.619Z,0.0000
2019-04-20T21:42:14.468Z,0.0000
2019-04-20T21:44:24.340Z,0.0000
2019-04-20T21:46:29.835Z,0.8405
2019-04-20T21:48:54.578Z,0.2808
2019-04-20T21:51:07.025Z,0.1973
2019-04-20T21:52:58.699Z,0.0000
2019-04-20T21:55:02.108Z,0.0000
2019-04-20T21:57:10.981Z,0.0293
2019-04-20T21:59:24.133Z,0.0834
2019-04-20T22:01:33.354Z,0.0000
2019-04-20T22:03:34.333Z,0.3629
2019-04-20T22:05:38.164Z,0.0000
2019-04-20T22:07:41.679Z,0.7016
2019-04-20T22:09:49.664Z,0.0000
2019-04-20T22:11:54.256Z,0.0000
2019-04-20T22:14:01.285Z,0.0000
2019-04-20T22:16:10.335Z,0.0564
2019-04-20T22:18:20.088Z,0.0000
2019-04-20T22:20:34.600Z,0.0000
2019-04-20T22:22:50.850Z,0.0000
2019-04-20T22:24:55.991Z,0.3652
2019-04-20T22:27:00.305Z,0.5896
2019-04-20T22:28:58.624Z,0.0000
2019-04-20T22:31:02.269Z,0.4106
2019-04-20T22:33:05.891Z,0.2049
2019-04-20T22:35:14.185Z,0.0000
2019-04-20T22:37:23.778Z,0.0000
2019-04-20T22:39:33.378Z,0.0000
2019-04-20T22:41:36.260Z,0.0000
2019-04-20T22:43:40.319Z,0.0000
2019-04-20T22:45:47.390Z,0.0000
2019-04-20T22:47:59.393Z,0.0000
2019-04-20T22:50:21.889Z,0.0000
2019-04-20T22:52:26.723Z,0.0000
2019-04-20T22:54:36.255Z,0.0000
2019-04-20T22:56:46.140Z,0.0000
2019-04-20T22:58:48.945Z,0.0000
2019-04-20T23:00:51.970Z,0.0000
2019-04-20T23:02:54.748Z,0.0000
2019-04-20T23:04:58.178Z,0.0293
2019-04-20T23:07:02.984Z,0.0587
2019-04-20T23:09:10.296Z,0.0000
2019-04-20T23:11:21.396Z,0.0000
2019-04-20T23:13:29.451Z,0.0000
2019-04-20T23:15:32.285Z,0.0282
2019-04-20T23:17:40.720Z,0.0291
2019-04-20T23:19:49.416Z,0.1405
2019-04-20T23:21:59.255Z,0.4514
2019-04-20T23:24:06.395Z,0.5923
2019-04-20T23:26:11.435Z,0.4741
2019-04-20T23:28:18.006Z,1.2469
2019-04-20T23:30:29.149Z,0.3395
2019-04-20T23:32:33.863Z,0.0000
2019-04-20T23:34:38.918Z,0.1447
2019-04-20T23:36:47.087Z,0.0578
2019-04-20T23:38:54.728Z,0.0000
2019-04-20T23:40:59.684Z,0.0000
2019-04-20T23:43:03.088Z,0.0000
2019-04-20T23:45:07.500Z,0.0587
2019-04-20T23:47:15.057Z,0.2035
2019-04-20T23:49:27.182Z,0.0000
2019-04-20T23:51:49.590Z,0.0281
2019-04-20T23:53:52.233Z,0.5897
2019-04-20T23:55:46.246Z,0.9026
2019-04-20T23:57:58.058Z,0.9271
